Maria Noelle — WDD9564 — position and weather

sailwx.info

Track history (hours):
 
Tides and Currents Weather Stations Pressure Air Temp Water Temp Dewpoint Dewpoint Depression Visibility Wind Speed Wind Dir Waves Ship Positions

Maria Noelle

Owner: MUROS INC, POINT PLEASANT, NJ. More information available from US FCC via Universal Licensing System and Coast Guard Vessel Documentation Center.

Last reported at 2017-Sep-14 10:20 UTC. Time now 2017-Sep-22 02:58 UTC.
Position N 40°05' W 073°08'.

Length 26 m.

Type: Fishing. MMSI: 367313170.

Date/timePositionNaut miles runAvg speedWind from/ knotsBaromVisibWave heightAir tempDewpointWater temp
2017-Sep-14 10:20N 40°05' W 073°08'2 4.8
2017-Sep-14 10:00N 40°05' W 073°10'2 1.3
2017-Sep-14 08:25N 40°05' W 073°08'2 4.3
2017-Sep-14 08:00N 40°05' W 073°10'2 3.7
2017-Sep-14 07:29N 40°05' W 073°12'10 1.7
2017-Sep-14 01:44N 40°05' W 073°25'20 2.0
2017-Sep-13 15:31N 40°06' W 073°52'0 7.8
2017-Sep-13 15:30N 40°06' W 073°52'4 8.2
2017-Sep-13 15:00N 40°06' W 073°46'4 8.2
2017-Sep-13 14:31N 40°06' W 073°41'4 8.2
2017-Sep-13 14:00N 40°05' W 073°36'4 8.3
2017-Sep-13 13:30N 40°05' W 073°30'4 8.3
2017-Sep-13 13:01N 40°05' W 073°25'4 8.5
2017-Sep-13 12:30N 40°05' W 073°19'4 8.6
2017-Sep-13 12:01N 40°05' W 073°14'2 4.8
2017-Sep-13 11:30N 40°05' W 073°10'2 4.4
2017-Sep-13 11:00N 40°05' W 073°08'2 3.5
2017-Sep-13 10:28N 40°05' W 073°05'3 4.7
2017-Sep-13 09:56N 40°06' W 073°02'1 3.3
2017-Sep-13 09:30N 40°07' W 073°00'2 4.7
2017-Sep-13 09:00N 40°07' W 072°57'1 2.7
2017-Sep-13 08:30N 40°07' W 072°59'2 4.2
2017-Sep-13 08:00N 40°07' W 073°02'2 4.7
2017-Sep-13 07:30N 40°05' W 073°04'2 3.1
2017-Sep-13 07:00N 40°05' W 073°06'2 4.7
2017-Sep-13 06:29N 40°05' W 073°09'2 4.0
2017-Sep-13 06:00N 40°05' W 073°12'2 4.3
2017-Sep-13 05:30N 40°04' W 073°09'2 3.5
2017-Sep-13 05:00N 40°05' W 073°11'1 1.6
2017-Sep-13 04:28N 40°05' W 073°10'1 2.0
2017-Sep-13 04:00N 40°05' W 073°09'2 3.3
2017-Sep-13 03:30N 40°07' W 073°10'2 4.6
2017-Sep-13 03:00N 40°07' W 073°13'2 4.7
2017-Sep-13 02:30N 40°07' W 073°16'3 6.7
2017-Sep-13 02:00N 40°07' W 073°21'4 8.1
2017-Sep-13 01:30N 40°07' W 073°26'4 8.1
2017-Sep-13 01:00N 40°07' W 073°31'7 8.3
2017-Sep-13 00:09N 40°06' W 073°40'1 8.3
2017-Sep-13 00:00N 40°06' W 073°42'4 8.3
2017-Sep-12 23:30N 40°06' W 073°47'4 8.3
2017-Sep-12 23:00N 40°06' W 073°53'6 8.4
2017-Sep-12 22:20N 40°06' W 074°00'6 0.8
2017-Sep-12 15:29N 40°06' W 073°53'8 8.3
2017-Sep-12 14:32N 40°06' W 073°43'1 8.3
2017-Sep-12 14:28N 40°06' W 073°42'4 8.3
2017-Sep-12 14:00N 40°06' W 073°37'5 8.5
2017-Sep-12 13:26N 40°06' W 073°31'5 8.7
2017-Sep-12 12:50N 40°07' W 073°24'10 2.3
2017-Sep-12 08:37N 40°05' W 073°11'0 2.8
2017-Sep-12 08:28N 40°05' W 073°12'3 1.9
2017-Sep-12 06:59N 40°07' W 073°10'2 2.4
2017-Sep-12 06:02N 40°05' W 073°12'0 3.6
2017-Sep-12 05:58N 40°05' W 073°12'2 4.4
2017-Sep-12 05:28N 40°04' W 073°09'0 0.1
2017-Sep-12 04:09N 40°05' W 073°09'2 4.5
2017-Sep-12 03:48N 40°05' W 073°11'1 3.4
2017-Sep-12 03:22N 40°06' W 073°13'2 4.9
2017-Sep-12 03:00N 40°07' W 073°14'2 4.8
2017-Sep-12 02:30N 40°08' W 073°17'8 7.2
2017-Sep-12 01:23N 40°07' W 073°28'15 1.4
2017-Sep-11 14:48N 40°05' W 073°47'3 8.2
2017-Sep-11 14:26N 40°05' W 073°43'6 8.2
2017-Sep-11 13:45N 40°04' W 073°36'  
2017-Sep-05 01:52N 40°03' W 073°34'  
Track history (hours):
 
Tides and Currents Weather Stations Pressure Air Temp Water Temp Dewpoint Dewpoint Depression Visibility Wind Speed Wind Dir Waves Ship Positions

Maria Noelle

Owner: MUROS INC, POINT PLEASANT, NJ. More information available from US FCC via Universal Licensing System and Coast Guard Vessel Documentation Center.

Last reported at 2017-Sep-14 10:20 UTC. Time now 2017-Sep-22 02:58 UTC.
Position N 40°05' W 073°08'.

Length 26 m.

Type: Fishing. MMSI: 367313170.

Date/timePositionNaut miles runAvg speedWind from/ knotsBaromVisibWave heightAir tempDewpointWater temp
2017-Sep-14 10:20N 40°05' W 073°08'2 4.8
2017-Sep-14 10:00N 40°05' W 073°10'2 1.3
2017-Sep-14 08:25N 40°05' W 073°08'2 4.3
2017-Sep-14 08:00N 40°05' W 073°10'2 3.7
2017-Sep-14 07:29N 40°05' W 073°12'10 1.7
2017-Sep-14 01:44N 40°05' W 073°25'20 2.0
2017-Sep-13 15:31N 40°06' W 073°52'0 7.8
2017-Sep-13 15:30N 40°06' W 073°52'4 8.2
2017-Sep-13 15:00N 40°06' W 073°46'4 8.2
2017-Sep-13 14:31N 40°06' W 073°41'4 8.2
2017-Sep-13 14:00N 40°05' W 073°36'4 8.3
2017-Sep-13 13:30N 40°05' W 073°30'4 8.3
2017-Sep-13 13:01N 40°05' W 073°25'4 8.5
2017-Sep-13 12:30N 40°05' W 073°19'4 8.6
2017-Sep-13 12:01N 40°05' W 073°14'2 4.8
2017-Sep-13 11:30N 40°05' W 073°10'2 4.4
2017-Sep-13 11:00N 40°05' W 073°08'2 3.5
2017-Sep-13 10:28N 40°05' W 073°05'3 4.7
2017-Sep-13 09:56N 40°06' W 073°02'1 3.3
2017-Sep-13 09:30N 40°07' W 073°00'2 4.7
2017-Sep-13 09:00N 40°07' W 072°57'1 2.7
2017-Sep-13 08:30N 40°07' W 072°59'2 4.2
2017-Sep-13 08:00N 40°07' W 073°02'2 4.7
2017-Sep-13 07:30N 40°05' W 073°04'2 3.1
2017-Sep-13 07:00N 40°05' W 073°06'2 4.7
2017-Sep-13 06:29N 40°05' W 073°09'2 4.0
2017-Sep-13 06:00N 40°05' W 073°12'2 4.3
2017-Sep-13 05:30N 40°04' W 073°09'2 3.5
2017-Sep-13 05:00N 40°05' W 073°11'1 1.6
2017-Sep-13 04:28N 40°05' W 073°10'1 2.0
2017-Sep-13 04:00N 40°05' W 073°09'2 3.3
2017-Sep-13 03:30N 40°07' W 073°10'2 4.6
2017-Sep-13 03:00N 40°07' W 073°13'2 4.7
2017-Sep-13 02:30N 40°07' W 073°16'3 6.7
2017-Sep-13 02:00N 40°07' W 073°21'4 8.1
2017-Sep-13 01:30N 40°07' W 073°26'4 8.1
2017-Sep-13 01:00N 40°07' W 073°31'7 8.3
2017-Sep-13 00:09N 40°06' W 073°40'1 8.3
2017-Sep-13 00:00N 40°06' W 073°42'4 8.3
2017-Sep-12 23:30N 40°06' W 073°47'4 8.3
2017-Sep-12 23:00N 40°06' W 073°53'6 8.4
2017-Sep-12 22:20N 40°06' W 074°00'6 0.8
2017-Sep-12 15:29N 40°06' W 073°53'8 8.3
2017-Sep-12 14:32N 40°06' W 073°43'1 8.3
2017-Sep-12 14:28N 40°06' W 073°42'4 8.3
2017-Sep-12 14:00N 40°06' W 073°37'5 8.5
2017-Sep-12 13:26N 40°06' W 073°31'5 8.7
2017-Sep-12 12:50N 40°07' W 073°24'10 2.3
2017-Sep-12 08:37N 40°05' W 073°11'0 2.8
2017-Sep-12 08:28N 40°05' W 073°12'3 1.9
2017-Sep-12 06:59N 40°07' W 073°10'2 2.4
2017-Sep-12 06:02N 40°05' W 073°12'0 3.6
2017-Sep-12 05:58N 40°05' W 073°12'2 4.4
2017-Sep-12 05:28N 40°04' W 073°09'0 0.1
2017-Sep-12 04:09N 40°05' W 073°09'2 4.5
2017-Sep-12 03:48N 40°05' W 073°11'1 3.4
2017-Sep-12 03:22N 40°06' W 073°13'2 4.9
2017-Sep-12 03:00N 40°07' W 073°14'2 4.8
2017-Sep-12 02:30N 40°08' W 073°17'8 7.2
2017-Sep-12 01:23N 40°07' W 073°28'15 1.4
2017-Sep-11 14:48N 40°05' W 073°47'3 8.2
2017-Sep-11 14:26N 40°05' W 073°43'6 8.2
2017-Sep-11 13:45N 40°04' W 073°36'  
2017-Sep-05 01:52N 40°03' W 073°34'  

Dump ship's entire track history